createdAt,value
2022-12-23T00:01:50.402Z,99846.19
2022-12-23T00:04:18.869Z,99842.13
2022-12-23T00:06:47.220Z,99841.63
2022-12-23T00:09:15.611Z,99834.50
2022-12-23T00:12:04.711Z,99829.84
2022-12-23T00:14:52.368Z,99830.66
2022-12-23T00:17:23.262Z,99819.56
2022-12-23T00:19:52.458Z,99805.94
2022-12-23T00:22:19.684Z,99807.47
2022-12-23T00:24:48.088Z,99807.56
2022-12-23T00:27:16.575Z,99813.97
2022-12-23T00:29:45.010Z,99808.25
2022-12-23T00:32:13.483Z,99805.50
2022-12-23T00:34:41.871Z,99808.25
2022-12-23T00:37:10.300Z,99805.63
2022-12-23T00:40:05.888Z,99796.66
2022-12-23T00:42:54.487Z,99792.50
2022-12-23T00:45:24.411Z,99786.41
2022-12-23T00:48:12.819Z,99790.25
2022-12-23T00:50:42.731Z,99795.66
2022-12-23T00:53:12.647Z,99796.25
2022-12-23T00:55:42.460Z,99793.50
2022-12-23T00:58:12.457Z,99791.75
2022-12-23T01:01:03.110Z,99798.88
2022-12-23T01:03:50.561Z,99801.53
2022-12-23T01:06:20.732Z,99804.50
2022-12-23T01:08:50.836Z,99792.81
2022-12-23T01:11:20.897Z,99779.38
2022-12-23T01:13:50.911Z,99785.00
2022-12-23T01:16:21.101Z,99780.09
2022-12-23T01:18:50.422Z,99774.09
2022-12-23T01:21:17.915Z,99779.56
2022-12-23T01:23:47.758Z,99777.13
2022-12-23T01:26:17.477Z,99778.25
2022-12-23T01:28:47.369Z,99779.41
2022-12-23T01:31:17.155Z,99767.91
2022-12-23T01:33:47.029Z,99770.94
2022-12-23T01:36:17.770Z,99781.63
2022-12-23T01:38:48.146Z,99773.91
2022-12-23T01:41:50.314Z,99766.97
2022-12-23T01:45:00.748Z,99771.97
2022-12-23T01:47:40.283Z,99767.66
2022-12-23T01:50:32.505Z,99765.53
2022-12-23T01:53:29.491Z,99759.75
2022-12-23T01:56:30.735Z,99756.38
2022-12-23T01:59:38.177Z,99751.69
2022-12-23T02:02:27.557Z,99745.91
2022-12-23T02:05:00.354Z,99747.53
2022-12-23T02:07:51.276Z,99735.72
2022-12-23T02:10:49.187Z,99739.91
2022-12-23T02:14:10.844Z,99737.78
2022-12-23T02:17:02.351Z,99734.41
2022-12-23T02:20:06.195Z,99730.84
2022-12-23T02:23:13.490Z,99726.56
2022-12-23T02:26:45.308Z,99724.44
2022-12-23T02:30:06.164Z,99721.38
2022-12-23T02:33:32.823Z,99714.25
2022-12-23T02:36:34.096Z,99716.50
2022-12-23T02:40:05.022Z,99716.81
2022-12-23T02:43:14.015Z,99703.09
2022-12-23T02:46:01.089Z,99702.25
2022-12-23T02:49:03.644Z,99700.84
2022-12-23T02:51:46.515Z,99704.09
2022-12-23T02:54:48.658Z,99699.28
2022-12-23T02:57:35.973Z,99687.78
2022-12-23T03:00:08.324Z,99691.84
2022-12-23T03:02:43.177Z,99682.19
2022-12-23T03:05:43.377Z,99681.34
2022-12-23T03:08:28.011Z,99694.28
2022-12-23T03:11:07.396Z,99684.38
2022-12-23T03:13:59.919Z,99683.38
2022-12-23T03:17:12.607Z,99680.69
2022-12-23T03:20:12.121Z,99673.09
2022-12-23T03:23:55.243Z,99679.94
2022-12-23T03:27:11.651Z,99679.31
2022-12-23T03:29:57.638Z,99662.97
2022-12-23T03:32:37.847Z,99673.63
2022-12-23T03:35:14.184Z,99669.56
2022-12-23T03:37:54.871Z,99665.38
2022-12-23T03:40:41.623Z,99663.75
2022-12-23T03:43:53.022Z,99656.47
2022-12-23T03:46:39.239Z,99642.00
2022-12-23T03:49:23.662Z,99647.66
2022-12-23T03:52:20.776Z,99655.91
2022-12-23T03:55:02.153Z,99641.84
2022-12-23T03:57:51.042Z,99644.41
2022-12-23T04:00:21.280Z,99649.09
2022-12-23T04:03:36.315Z,99651.63
2022-12-23T04:06:17.665Z,99632.75
2022-12-23T04:08:52.499Z,99643.28
2022-12-23T04:11:23.194Z,99641.16
2022-12-23T04:13:54.289Z,99636.16
2022-12-23T04:16:24.998Z,99635.34
2022-12-23T04:18:56.046Z,99634.56
2022-12-23T04:21:23.440Z,99630.16
2022-12-23T04:23:51.926Z,99626.59
2022-12-23T04:26:20.328Z,99627.91
2022-12-23T04:28:48.782Z,99628.31
2022-12-23T04:31:17.271Z,99630.56
2022-12-23T04:33:45.667Z,99633.31
2022-12-23T04:36:14.118Z,99630.72
2022-12-23T04:38:43.345Z,99633.47
2022-12-23T04:41:11.767Z,99622.47
2022-12-23T04:43:40.274Z,99612.50
2022-12-23T04:46:08.839Z,99613.19
2022-12-23T04:48:37.211Z,99618.69
2022-12-23T04:51:05.751Z,99614.81
2022-12-23T04:53:37.081Z,99615.31
2022-12-23T04:56:05.653Z,99612.44
2022-12-23T04:58:34.107Z,99621.28
2022-12-23T05:01:10.814Z,99618.38
2022-12-23T05:03:41.442Z,99617.88
2022-12-23T05:06:11.506Z,99609.13
2022-12-23T05:08:41.516Z,99617.69
2022-12-23T05:11:11.581Z,99626.13
2022-12-23T05:13:41.583Z,99621.44
2022-12-23T05:16:11.737Z,99630.81
2022-12-23T05:18:41.771Z,99632.72
2022-12-23T05:21:11.924Z,99627.56
2022-12-23T05:23:42.322Z,99626.72
2022-12-23T05:26:12.422Z,99619.50
2022-12-23T05:28:45.586Z,99623.75
2022-12-23T05:31:17.333Z,99618.88
2022-12-23T05:33:47.544Z,99622.00
2022-12-23T05:36:17.594Z,99618.44
2022-12-23T05:38:48.469Z,99630.44
2022-12-23T05:41:17.406Z,99621.38
2022-12-23T05:43:44.497Z,99619.44
2022-12-23T05:46:13.030Z,99626.53
2022-12-23T05:48:41.341Z,99627.88
2022-12-23T05:51:09.732Z,99623.19
2022-12-23T05:53:38.150Z,99627.75
2022-12-23T05:56:07.760Z,99630.50
2022-12-23T05:58:35.181Z,99627.09
2022-12-23T06:01:05.088Z,99629.59
2022-12-23T06:03:35.131Z,99619.88
2022-12-23T06:06:03.376Z,99629.28
2022-12-23T06:08:31.736Z,99634.59
2022-12-23T06:11:00.126Z,99627.78
2022-12-23T06:13:28.561Z,99643.69
2022-12-23T06:15:57.014Z,99633.34
2022-12-23T06:18:25.440Z,99642.09
2022-12-23T06:20:53.793Z,99642.88
2022-12-23T06:23:22.264Z,99646.97
2022-12-23T06:25:50.741Z,99655.22
2022-12-23T06:28:19.061Z,99652.63
2022-12-23T06:30:54.799Z,99659.59
2022-12-23T06:33:25.825Z,99657.97
2022-12-23T06:35:55.864Z,99664.94
2022-12-23T06:38:25.891Z,99660.44
2022-12-23T06:40:56.003Z,99660.94
2022-12-23T06:43:26.029Z,99668.88
2022-12-23T06:45:56.106Z,99678.63
2022-12-23T06:48:26.153Z,99677.44
2022-12-23T06:50:56.202Z,99678.97
2022-12-23T06:53:26.242Z,99682.88
2022-12-23T06:56:04.331Z,99684.00
2022-12-23T06:58:34.325Z,99690.97
2022-12-23T07:01:04.650Z,99700.69
2022-12-23T07:03:34.826Z,99700.72
2022-12-23T07:06:05.398Z,99703.78
2022-12-23T07:08:35.598Z,99706.88
2022-12-23T07:11:06.133Z,99705.25
2022-12-23T07:13:34.988Z,99719.19
2022-12-23T07:16:09.805Z,99718.91
2022-12-23T07:18:40.178Z,99715.81
2022-12-23T07:21:19.709Z,99717.28
2022-12-23T07:23:51.511Z,99721.50
2022-12-23T07:26:21.577Z,99728.63
2022-12-23T07:28:51.588Z,99725.38
2022-12-23T07:31:19.149Z,99725.25
2022-12-23T07:33:46.865Z,99721.69
2022-12-23T07:36:16.556Z,99731.06
2022-12-23T07:38:51.753Z,99741.78
2022-12-23T07:41:21.015Z,99735.97
2022-12-23T07:43:51.056Z,99730.94
2022-12-23T07:46:21.345Z,99740.47
2022-12-23T07:48:51.393Z,99741.75
2022-12-23T07:51:21.526Z,99742.06
2022-12-23T07:53:51.719Z,99746.78
2022-12-23T07:56:22.153Z,99752.13
2022-12-23T07:58:54.246Z,99757.31
2022-12-23T08:01:23.589Z,99756.38
2022-12-23T08:03:53.381Z,99758.84
2022-12-23T08:06:23.153Z,99750.53
2022-12-23T08:08:53.172Z,99750.03
2022-12-23T08:11:21.667Z,99753.59
2022-12-23T08:13:50.087Z,99763.00
2022-12-23T08:16:19.056Z,99759.44
2022-12-23T08:18:46.817Z,99761.97
2022-12-23T08:21:20.077Z,99771.19
2022-12-23T08:23:50.957Z,99771.03
2022-12-23T08:26:23.466Z,99775.09
2022-12-23T08:28:53.572Z,99778.66
2022-12-23T08:31:32.119Z,99779.16
2022-12-23T08:34:02.172Z,99774.59
2022-12-23T08:36:36.220Z,99773.78
2022-12-23T08:39:11.410Z,99783.66
2022-12-23T08:41:47.254Z,99788.41
2022-12-23T08:44:18.528Z,99790.00
2022-12-23T08:46:47.248Z,99788.66
2022-12-23T08:49:15.542Z,99793.38
2022-12-23T08:51:44.512Z,99799.09
2022-12-23T08:54:15.532Z,99804.13
2022-12-23T08:56:45.547Z,99800.91
2022-12-23T08:59:19.563Z,99791.16
2022-12-23T09:01:50.090Z,99804.28
2022-12-23T09:04:20.224Z,99797.44
2022-12-23T09:06:50.370Z,99807.81
2022-12-23T09:09:20.452Z,99806.06
2022-12-23T09:11:48.140Z,99811.16
2022-12-23T09:14:15.351Z,99805.59
2022-12-23T09:16:45.403Z,99808.06
2022-12-23T09:19:15.538Z,99806.28
2022-12-23T09:21:45.633Z,99829.13
2022-12-23T09:24:15.741Z,99842.44
2022-12-23T09:26:45.840Z,99846.84
2022-12-23T09:29:15.858Z,99837.41
2022-12-23T09:31:46.015Z,99844.84
2022-12-23T09:34:16.107Z,99851.72
2022-12-23T09:36:48.041Z,99861.78
2022-12-23T09:39:19.462Z,99869.09
2022-12-23T09:42:27.367Z,99871.03
2022-12-23T09:45:57.984Z,99867.44
2022-12-23T09:48:45.529Z,99867.47
2022-12-23T09:51:23.646Z,99869.44
2022-12-23T09:54:31.411Z,99871.72
2022-12-23T09:57:31.828Z,99895.03
2022-12-23T10:00:09.766Z,99902.50
2022-12-23T10:03:21.047Z,99913.06
2022-12-23T10:06:20.020Z,99917.53
2022-12-23T10:09:01.055Z,99911.50
2022-12-23T10:11:40.815Z,99899.34
2022-12-23T10:14:41.406Z,99906.81
2022-12-23T10:17:38.320Z,99901.97
2022-12-23T10:20:34.759Z,99903.91
2022-12-23T10:23:27.661Z,99903.13
2022-12-23T10:25:57.984Z,99898.06
2022-12-23T10:28:29.676Z,99904.41
2022-12-23T10:31:38.722Z,99891.09
2022-12-23T10:35:02.019Z,99898.84
2022-12-23T10:38:11.103Z,99892.22
2022-12-23T10:41:09.580Z,99894.53
2022-12-23T10:44:35.643Z,99887.75
2022-12-23T10:47:38.752Z,99871.91
2022-12-23T10:51:01.465Z,99887.56
2022-12-23T10:53:43.112Z,99883.53
2022-12-23T10:56:14.844Z,99884.88
2022-12-23T10:58:51.275Z,99901.41
2022-12-23T11:01:27.146Z,99893.94
2022-12-23T11:04:17.905Z,99900.75
2022-12-23T11:07:18.121Z,99904.47
2022-12-23T11:10:04.050Z,99898.31
2022-12-23T11:12:50.578Z,99894.97
2022-12-23T11:15:35.399Z,99892.22
2022-12-23T11:18:13.089Z,99897.75
2022-12-23T11:21:02.557Z,99895.34
2022-12-23T11:23:36.919Z,99898.63
2022-12-23T11:26:18.447Z,99906.63
2022-12-23T11:29:07.687Z,99907.41
2022-12-23T11:31:38.540Z,99901.59
2022-12-23T11:34:22.930Z,99902.84
2022-12-23T11:37:06.938Z,99904.16
2022-12-23T11:39:38.356Z,99906.56
2022-12-23T11:42:24.587Z,99907.38
2022-12-23T11:45:00.648Z,99907.41
2022-12-23T11:47:41.486Z,99906.56
2022-12-23T11:50:38.245Z,99925.91
2022-12-23T11:53:21.749Z,99931.03
2022-12-23T11:56:15.726Z,99938.63
2022-12-23T11:59:03.663Z,99944.22
2022-12-23T12:01:36.652Z,99945.94
2022-12-23T12:04:20.608Z,99942.31
2022-12-23T12:06:56.633Z,99955.16
2022-12-23T12:09:32.146Z,99950.41
2022-12-23T12:12:19.460Z,99948.97
2022-12-23T12:14:58.904Z,99964.22
2022-12-23T12:17:58.715Z,99957.63
2022-12-23T12:20:39.550Z,99956.97
2022-12-23T12:23:36.487Z,99952.41
2022-12-23T12:26:25.255Z,99952.22
2022-12-23T12:29:46.532Z,99948.97
2022-12-23T12:32:47.432Z,99949.16
2022-12-23T12:35:44.273Z,99952.03
2022-12-23T12:38:39.239Z,99946.19
2022-12-23T12:41:32.723Z,99940.06
2022-12-23T12:44:40.659Z,99941.88
2022-12-23T12:47:56.850Z,99933.13
2022-12-23T12:50:39.444Z,99933.91
2022-12-23T12:53:22.385Z,99936.72
2022-12-23T12:56:22.858Z,99922.00
2022-12-23T12:58:53.002Z,99918.88
2022-12-23T13:02:44.415Z,99922.94
2022-12-23T13:06:07.795Z,99931.53
2022-12-23T13:09:14.537Z,99934.56
2022-12-23T13:13:05.834Z,99924.84
2022-12-23T13:16:11.079Z,99931.88
2022-12-23T13:19:08.827Z,99936.38
2022-12-23T13:21:54.180Z,99922.59
2022-12-23T13:25:04.142Z,99920.00
2022-12-23T13:27:56.246Z,99929.44
2022-12-23T13:30:49.184Z,99927.31
2022-12-23T13:33:55.571Z,99922.06
2022-12-23T13:37:26.211Z,99899.53
2022-12-23T13:40:26.287Z,99899.03
2022-12-23T13:43:18.707Z,99901.88
2022-12-23T13:45:55.973Z,99910.28
2022-12-23T13:48:57.951Z,99907.34
2022-12-23T13:52:03.994Z,99911.84
2022-12-23T13:55:10.252Z,99908.09
2022-12-23T13:58:01.139Z,99905.97
2022-12-23T14:00:35.033Z,99905.28
2022-12-23T14:03:24.143Z,99912.72
2022-12-23T14:05:54.352Z,99911.13
2022-12-23T14:08:43.403Z,99908.38
2022-12-23T14:11:29.534Z,99912.72
2022-12-23T14:14:07.090Z,99923.56
2022-12-23T14:17:20.287Z,99910.41
2022-12-23T14:20:39.453Z,99915.44
2022-12-23T14:24:14.801Z,99909.72
2022-12-23T14:27:41.359Z,99913.91
2022-12-23T14:30:47.015Z,99907.41
2022-12-23T14:33:33.454Z,99915.66
2022-12-23T14:36:26.888Z,99922.91
2022-12-23T14:39:11.956Z,99931.47
2022-12-23T14:41:57.580Z,99930.81
2022-12-23T14:44:38.533Z,99923.66
2022-12-23T14:47:40.624Z,99916.53
2022-12-23T14:50:42.111Z,99916.84
2022-12-23T14:53:32.356Z,99922.13
2022-12-23T14:56:42.039Z,99930.41
2022-12-23T14:59:51.490Z,99930.72
2022-12-23T15:02:38.894Z,99932.13
2022-12-23T15:05:09.971Z,99935.53
2022-12-23T15:07:47.532Z,99928.72
2022-12-23T15:10:26.990Z,99930.97
2022-12-23T15:13:06.263Z,99930.44
2022-12-23T15:15:36.329Z,99930.25
2022-12-23T15:18:13.442Z,99921.19
2022-12-23T15:20:43.535Z,99922.00
2022-12-23T15:23:17.997Z,99918.81
2022-12-23T15:25:51.408Z,99917.00
2022-12-23T15:28:36.253Z,99914.03
2022-12-23T15:31:25.783Z,99911.13
2022-12-23T15:34:03.589Z,99910.78
2022-12-23T15:36:37.316Z,99908.97
2022-12-23T15:39:19.337Z,99905.19
2022-12-23T15:41:49.425Z,99914.78
2022-12-23T15:44:35.871Z,99909.09
2022-12-23T15:47:29.603Z,99914.38
2022-12-23T15:50:03.264Z,99914.19
2022-12-23T15:52:33.204Z,99906.56
2022-12-23T15:55:22.346Z,99904.44
2022-12-23T15:57:53.216Z,99907.78
2022-12-23T16:00:57.692Z,99912.34
2022-12-23T16:04:01.080Z,99914.22
2022-12-23T16:06:36.524Z,99911.47
2022-12-23T16:09:13.080Z,99916.44
2022-12-23T16:12:23.199Z,99919.31
2022-12-23T16:14:59.134Z,99919.41
2022-12-23T16:17:37.353Z,99915.63
2022-12-23T16:20:21.272Z,99930.53
2022-12-23T16:22:56.602Z,99925.63
2022-12-23T16:25:31.712Z,99917.66
2022-12-23T16:28:06.887Z,99919.44
2022-12-23T16:30:43.014Z,99919.72
2022-12-23T16:33:47.667Z,99914.31
2022-12-23T16:36:26.351Z,99906.69
2022-12-23T16:39:07.327Z,99911.16
2022-12-23T16:41:37.669Z,99914.19
2022-12-23T16:44:07.979Z,99913.09
2022-12-23T16:46:45.723Z,99913.91
2022-12-23T16:49:24.394Z,99903.72
2022-12-23T16:51:57.028Z,99891.63
2022-12-23T16:54:27.061Z,99888.03
2022-12-23T16:56:58.159Z,99885.00
2022-12-23T16:59:28.291Z,99887.44
2022-12-23T17:02:03.175Z,99886.00
2022-12-23T17:04:33.604Z,99881.31
2022-12-23T17:07:12.286Z,99888.75
2022-12-23T17:09:42.293Z,99882.47
2022-12-23T17:12:17.743Z,99873.91
2022-12-23T17:14:47.786Z,99877.47
2022-12-23T17:17:18.509Z,99876.34
2022-12-23T17:19:48.578Z,99870.03
2022-12-23T17:22:19.217Z,99871.97
2022-12-23T17:24:49.296Z,99860.97
2022-12-23T17:27:20.882Z,99862.59
2022-12-23T17:29:51.107Z,99859.84
2022-12-23T17:32:19.532Z,99848.84
2022-12-23T17:34:49.589Z,99842.03
2022-12-23T17:37:23.026Z,99839.28
2022-12-23T17:39:52.662Z,99836.53
2022-12-23T17:42:25.997Z,99838.50
2022-12-23T17:44:54.211Z,99838.50
2022-12-23T17:47:23.150Z,99824.75
2022-12-23T17:49:51.076Z,99824.75
2022-12-23T17:52:24.398Z,99814.84
2022-12-23T17:54:53.135Z,99823.09
2022-12-23T17:57:27.144Z,99808.25
2022-12-23T17:59:56.949Z,99812.94
2022-12-23T18:02:33.200Z,99808.25
2022-12-23T18:05:28.468Z,99813.75
2022-12-23T18:08:00.630Z,99809.06
2022-12-23T18:10:39.478Z,99811.50
2022-12-23T18:13:19.512Z,99809.28
2022-12-23T18:15:50.718Z,99812.03
2022-12-23T18:18:37.784Z,99811.22
2022-12-23T18:21:29.101Z,99807.63
2022-12-23T18:24:00.586Z,99809.28
2022-12-23T18:26:30.816Z,99802.13
2022-12-23T18:29:00.814Z,99814.75
2022-12-23T18:31:31.418Z,99815.56
2022-12-23T18:34:01.473Z,99817.50
2022-12-23T18:36:34.034Z,99821.06
2022-12-23T18:39:04.230Z,99821.56
2022-12-23T18:41:34.310Z,99816.38
2022-12-23T18:44:04.728Z,99811.72
2022-12-23T18:46:34.782Z,99810.38
2022-12-23T18:49:04.783Z,99815.88
2022-12-23T18:51:34.787Z,99813.44
2022-12-23T18:54:03.247Z,99816.19
2022-12-23T18:56:31.653Z,99813.44
2022-12-23T18:59:00.098Z,99815.38
2022-12-23T19:01:28.853Z,99808.25
2022-12-23T19:03:56.959Z,99813.44
2022-12-23T19:06:26.822Z,99806.53
2022-12-23T19:08:56.852Z,99808.63
2022-12-23T19:11:25.312Z,99806.09
2022-12-23T19:13:53.652Z,99801.41
2022-12-23T19:16:22.606Z,99804.34
2022-12-23T19:18:51.201Z,99792.56
2022-12-23T19:21:19.650Z,99800.25
2022-12-23T19:23:47.346Z,99793.94
2022-12-23T19:26:15.974Z,99791.50
2022-12-23T19:28:44.294Z,99785.63
2022-12-23T19:31:16.690Z,99791.50
2022-12-23T19:33:47.747Z,99788.88
2022-12-23T19:36:23.035Z,99791.13
2022-12-23T19:38:53.323Z,99791.72
2022-12-23T19:41:23.241Z,99796.41
2022-12-23T19:43:53.048Z,99791.34
2022-12-23T19:46:23.130Z,99785.41
2022-12-23T19:48:53.723Z,99785.13
2022-12-23T19:51:23.592Z,99783.97
2022-12-23T19:53:53.778Z,99782.00
2022-12-23T19:56:23.581Z,99777.59
2022-12-23T19:58:53.484Z,99782.00
2022-12-23T20:01:26.863Z,99767.25
2022-12-23T20:03:57.403Z,99775.16
2022-12-23T20:06:34.930Z,99775.28
2022-12-23T20:09:07.841Z,99766.72
2022-12-23T20:11:43.533Z,99765.91
2022-12-23T20:14:15.049Z,99760.91
2022-12-23T20:16:43.801Z,99764.28
2022-12-23T20:19:13.381Z,99756.41
2022-12-23T20:21:41.147Z,99755.22
2022-12-23T20:24:10.488Z,99746.78
2022-12-23T20:26:42.412Z,99742.38
2022-12-23T20:29:11.511Z,99740.78
2022-12-23T20:31:41.443Z,99731.59
2022-12-23T20:34:17.348Z,99722.06
2022-12-23T20:36:47.320Z,99733.84
2022-12-23T20:39:14.439Z,99727.66
2022-12-23T20:41:42.945Z,99735.91
2022-12-23T20:47:01.346Z,99731.03
2022-12-23T20:49:31.368Z,99728.28
2022-12-23T20:52:01.627Z,99724.72
2022-12-23T20:54:33.567Z,99725.09
2022-12-23T20:57:04.252Z,99734.78
2022-12-23T20:59:34.228Z,99730.72
2022-12-23T21:02:04.149Z,99729.06
2022-12-23T21:04:34.054Z,99736.50
2022-12-23T21:07:03.930Z,99731.03
2022-12-23T21:09:35.074Z,99734.91
2022-12-23T21:12:05.327Z,99723.28
2022-12-23T21:14:34.990Z,99731.81
2022-12-23T21:17:04.910Z,99734.06
2022-12-23T21:19:34.971Z,99735.94
2022-12-23T21:22:04.975Z,99728.00
2022-12-23T21:24:34.890Z,99731.59
2022-12-23T21:27:04.801Z,99737.19
2022-12-23T21:29:34.543Z,99735.22
2022-12-23T21:32:04.668Z,99730.22
2022-12-23T21:34:34.599Z,99725.78
2022-12-23T21:37:04.361Z,99725.91
2022-12-23T21:39:34.309Z,99732.53
2022-12-23T21:42:04.938Z,99727.97
2022-12-23T21:44:34.626Z,99724.22
2022-12-23T21:47:04.456Z,99712.34
2022-12-23T21:49:32.880Z,99718.44
2022-12-23T21:52:02.187Z,99717.00
2022-12-23T21:54:29.417Z,99714.59
2022-12-23T21:56:57.835Z,99703.91
2022-12-23T21:59:32.782Z,99718.28
2022-12-23T22:02:04.994Z,99707.66
2022-12-23T22:04:35.046Z,99695.22
2022-12-23T22:07:04.936Z,99693.41
2022-12-23T22:09:34.704Z,99689.47
2022-12-23T22:12:06.267Z,99695.47
2022-12-23T22:14:36.748Z,99691.53
2022-12-23T22:17:06.446Z,99681.03
2022-12-23T22:19:36.301Z,99686.53
2022-12-23T22:22:06.023Z,99690.03
2022-12-23T22:24:35.843Z,99686.19
2022-12-23T22:27:05.558Z,99682.34
2022-12-23T22:29:35.335Z,99695.34
2022-12-23T22:32:05.479Z,99687.09
2022-12-23T22:34:35.485Z,99685.91
2022-12-23T22:37:05.273Z,99690.91
2022-12-23T22:39:35.101Z,99683.34
2022-12-23T22:42:08.091Z,99676.69
2022-12-23T22:44:37.714Z,99694.53
2022-12-23T22:47:07.719Z,99679.16
2022-12-23T22:49:37.640Z,99682.28
2022-12-23T22:52:07.651Z,99674.69
2022-12-23T22:54:37.373Z,99673.59
2022-12-23T22:57:07.508Z,99670.97
2022-12-23T22:59:38.151Z,99673.53
2022-12-23T23:02:08.271Z,99676.88
2022-12-23T23:04:37.988Z,99666.69
2022-12-23T23:07:08.286Z,99671.34
2022-12-23T23:09:37.977Z,99675.97
2022-12-23T23:12:10.697Z,99675.09
2022-12-23T23:14:53.221Z,99678.34
2022-12-23T23:17:28.851Z,99681.03
2022-12-23T23:19:59.289Z,99678.63
2022-12-23T23:22:27.385Z,99686.03
2022-12-23T23:24:55.753Z,99678.53
2022-12-23T23:27:24.166Z,99687.16
2022-12-23T23:29:52.576Z,99681.09
2022-12-23T23:32:21.050Z,99681.59
2022-12-23T23:34:49.393Z,99685.59
2022-12-23T23:37:17.855Z,99694.34
2022-12-23T23:39:46.216Z,99692.84
2022-12-23T23:42:19.530Z,99700.19
2022-12-23T23:44:49.457Z,99697.88
2022-12-23T23:47:19.176Z,99700.72
2022-12-23T23:49:49.133Z,99698.09
2022-12-23T23:52:18.874Z,99700.63
2022-12-23T23:54:48.689Z,99696.44
2022-12-23T23:57:18.529Z,99701.94
2022-12-23T23:59:49.012Z,99704.44
